Cheyenne — 9HAK5 — position and weather

sailwx.info

Track history (hours):
 
Tides and Currents Weather Stations Pressure Air Temp Water Temp Dewpoint Dewpoint Depression Visibility Wind Speed Wind Dir Waves Ship Positions

Cheyenne

Last reported at 2015-Jul-05 19:20 UTC. Time now 2015-Jul-06 02:54 UTC.
Position N 41°28' E 029°38'.

Length 133 m; draft 3.8 m.

Type: Cargo ship. MMSI: 249607000.

Date/timePositionNaut miles runAvg speedWind from/ knotsBaromVisibWave heightAir tempDewpointWater temp
2015-Jul-05 19:20N 41°28' E 029°38'6 8.1
2015-Jul-05 18:33N 41°25' E 029°31'38 5.4
2015-Jul-05 11:32N 40°58' E 028°56'0 0.1
2015-Jul-05 10:30N 40°58' E 028°56'0 0.0
2015-Jul-05 09:19N 40°58' E 028°56'0 0.0
2015-Jul-05 08:29N 40°58' E 028°56'  
2015-Jun-27 19:33N 34°28' E 032°12'9 8.5
2015-Jun-27 18:32N 34°26' E 032°22'8 8.3
2015-Jun-27 17:31N 34°24' E 032°32'6 6.5
2015-Jun-27 16:33N 34°23' E 032°40'6 5.9
2015-Jun-27 15:33N 34°22' E 032°47'7 5.9
2015-Jun-27 14:21N 34°20' E 032°55'5 5.9
2015-Jun-27 13:26N 34°19' E 033°02'6 5.8
2015-Jun-27 12:26N 34°18' E 033°08'35 5.9
2015-Jun-27 06:33N 34°10' E 033°49'  
Track history (hours):
 
Tides and Currents Weather Stations Pressure Air Temp Water Temp Dewpoint Dewpoint Depression Visibility Wind Speed Wind Dir Waves Ship Positions

Cheyenne

Last reported at 2015-Jul-05 19:20 UTC. Time now 2015-Jul-06 02:54 UTC.
Position N 41°28' E 029°38'.

Length 133 m; draft 3.8 m.

Type: Cargo ship. MMSI: 249607000.

Date/timePositionNaut miles runAvg speedWind from/ knotsBaromVisibWave heightAir tempDewpointWater temp
2015-Jul-05 19:20N 41°28' E 029°38'6 8.1
2015-Jul-05 18:33N 41°25' E 029°31'38 5.4
2015-Jul-05 11:32N 40°58' E 028°56'0 0.1
2015-Jul-05 10:30N 40°58' E 028°56'0 0.0
2015-Jul-05 09:19N 40°58' E 028°56'0 0.0
2015-Jul-05 08:29N 40°58' E 028°56'  
2015-Jun-27 19:33N 34°28' E 032°12'9 8.5
2015-Jun-27 18:32N 34°26' E 032°22'8 8.3
2015-Jun-27 17:31N 34°24' E 032°32'6 6.5
2015-Jun-27 16:33N 34°23' E 032°40'6 5.9
2015-Jun-27 15:33N 34°22' E 032°47'7 5.9
2015-Jun-27 14:21N 34°20' E 032°55'5 5.9
2015-Jun-27 13:26N 34°19' E 033°02'6 5.8
2015-Jun-27 12:26N 34°18' E 033°08'35 5.9
2015-Jun-27 06:33N 34°10' E 033°49'  

Dump ship's entire track history